Kapaa, HI

3:42 PM HST on September 23, 2014 (GMT -1000)
WAILUA HOMESTEADS | Change Station
CLOSE
Current Station
Personal Weather Station
Location: Kapaa, HI
Elevation: 361 ft
Nearby Weather Stations

Elev 361 ft 22.07 °N, 159.36 °W | Updated 55 seconds ago

Clear
Clear
81.0 °F
Feels Like 91 °F
N
7.0
Wind Variable Wind from North
Gusts 7.0 mph

Today
High -- | Low -- °F
--% Chance of Precip.
Yesterday
High -- | Low -- °F
Precip. -- in
6:26 AM 6:32 PM
Waning Crescent, 0% visible
Pressure 30.02 in
Visibility 10.0 miles
Clouds Clear
Heat Index 91 °F
Dew Point 81 °F
Humidity 100%
Rainfall 0.22 in
Snow Depth Not available.
UV 3.9 out of 12
Pollen Not available.
Air Quality Not available.
Flu Activity Not available.
METAR PHLI 240053Z 04013KT 10SM CLR 30/21 A3003 RMK AO2 SLP165 T03000211

More Conditions Fewer Conditions

Pressure 30.02 in
Visibility 10.0 miles
Clouds Clear
Heat Index 91 °F
Dew Point 81 °F
Humidity 100%
Rainfall 0.22 in
Snow Depth Not available.
UV 3.9 out of 12
Pollen Not available.
Air Quality Not available.
Flu Activity Not available.
METAR PHLI 240053Z 04013KT 10SM CLR 30/21 A3003 RMK AO2 SLP165 T03000211

More Conditions Fewer Conditions

10-Day Weather Forecast

Almanac

Astronomy

Sep. 23, 2014 Rise Set
Actual Time 6:26 AM HST 6:32 PM HST
Civil Twilight 6:04 AM HST 6:54 PM HST
Nautical Twilight 5:38 AM HST 7:20 PM HST
Astronomical Twilight 5:12 AM HST 7:46 PM HST
Moon 6:01 AM HST (9/23) 6:20 PM HST (9/23)
Length of Visible Light 12h 50m
Length of Day
12h 05m
Tomorrow will be 1m 15s shorter.
Waning Crescent, 0% of the Moon is Illuminated
Today
Waning Crescent
Sep 24
New
Oct 1
First Quarter
Oct 8
Full
Oct 15
Last Quarter

Today's Extremes

State Highs State Lows

Community

WunderPhotos

Upload Photos

1,755,844 photos uploaded!

Nearby

Snow Depth

Station Depth Elevation
No new snow has been reported.

Earthquake Activity

City Distance Mag. Time & Date
No recent earthquake activity has been reported nearby.
Minimum magnitude displayed is 2.5.

Coastal Water Temperatures

Place Temperature
No Stations Reporting

Nearby Weather Stations